Time;durP1;ratioP1;P1;durP2;ratioP2;P2;SDS_P1;SDS_P2;PMS_P1;PMS_P2;Temp;Humidity;BMP_temperature;BMP_pressure;BME280_temperature;BME280_humidity;BME280_pressure;Samples;Min_cycle;Max_cycle;Signal;HPM_P1;HPM_P2
2021/11/12 00:03:30;;;;;;;33.33;16.38;;;;;;;23.87;19.01;98884.78;5071103;28;20051;-80
2021/11/12 00:12:05;;;;;;;24.63;14.43;;;;;;;23.40;19.53;98879.94;5063364;28;20167;-81
2021/11/12 00:14:32;;;;;;;30.73;14.38;;;;;;;23.51;19.64;98879.84;5071536;28;20043;-81
2021/11/12 00:16:59;;;;;;;29.70;15.23;;;;;;;23.47;19.72;98879.88;5068973;28;20506;-80
2021/11/12 00:19:25;;;;;;;31.58;15.60;;;;;;;23.41;19.66;98872.31;5074120;28;20024;-81
2021/11/12 00:21:53;;;;;;;35.30;17.52;;;;;;;23.35;19.49;98875.56;5068674;28;20048;-81
2021/11/12 00:24:19;;;;;;;34.08;17.33;;;;;;;23.47;19.52;98871.47;5073885;28;20035;-81
2021/11/12 00:26:46;;;;;;;28.58;16.25;;;;;;;23.34;19.62;98873.94;5087685;28;20485;-81
2021/11/12 00:29:13;;;;;;;31.10;16.10;;;;;;;23.29;19.72;98879.19;5061630;28;20036;-81
2021/11/12 00:35:05;;;;;;;32.35;16.20;;;;;;;23.55;19.40;98875.03;5032543;28;20092;-81
2021/11/12 00:40:24;;;;;;;28.70;15.05;;;;;;;23.69;19.09;98870.09;5055828;28;20408;-81
2021/11/12 00:45:31;;;;;;;27.52;14.35;;;;;;;23.52;18.99;98878.66;5073376;28;20037;-81
2021/11/12 00:48:09;;;;;;;30.67;16.00;;;;;;;23.18;19.58;98876.44;5069343;28;20032;-81
2021/11/12 00:55:41;;;;;;;30.98;15.07;;;;;;;23.27;19.22;98873.16;5070131;28;20028;-80
2021/11/12 00:58:10;;;;;;;26.63;13.40;;;;;;;23.27;19.19;98882.38;5070414;28;20047;-81
2021/11/12 01:00:37;;;;;;;29.45;14.55;;;;;;;23.36;19.35;98873.56;5071995;28;20394;-80
2021/11/12 01:03:04;;;;;;;22.55;12.45;;;;;;;23.41;19.01;98883.53;5066914;28;20104;-80
2021/11/12 01:05:31;;;;;;;26.85;13.40;;;;;;;23.42;18.99;98879.50;5070081;28;20112;-81
2021/11/12 01:07:59;;;;;;;26.77;13.70;;;;;;;23.33;19.21;98877.16;5075788;28;20073;-80
2021/11/12 01:10:27;;;;;;;26.92;13.20;;;;;;;23.29;18.97;98876.38;5068360;28;20063;-81
2021/11/12 01:12:53;;;;;;;26.70;13.60;;;;;;;23.30;18.95;98880.75;5076425;28;20485;-80
2021/11/12 01:15:20;;;;;;;23.23;12.95;;;;;;;23.21;18.96;98874.81;5058374;28;20082;-80
2021/11/12 01:17:47;;;;;;;22.92;13.70;;;;;;;23.30;19.13;98875.16;5062080;28;20433;-81
2021/11/12 01:20:16;;;;;;;28.85;13.90;;;;;;;23.20;18.94;98865.59;5083168;28;20040;-81
2021/11/12 01:22:43;;;;;;;35.17;18.05;;;;;;;22.91;19.43;98875.38;5068491;28;20040;-80
2021/11/12 01:25:12;;;;;;;26.40;14.82;;;;;;;22.71;19.67;98871.44;5060947;28;20482;-80
2021/11/12 01:27:39;;;;;;;31.42;16.15;;;;;;;22.98;19.40;98872.53;5062452;28;20031;-80
2021/11/12 01:30:07;;;;;;;26.90;13.65;;;;;;;23.10;19.50;98872.09;5071316;28;20029;-81
2021/11/12 01:32:33;;;;;;;29.58;15.00;;;;;;;23.11;19.31;98861.66;5059441;28;20041;-81
2021/11/12 01:35:01;;;;;;;28.05;14.32;;;;;;;22.98;19.83;98868.94;5087751;28;20436;-81
2021/11/12 01:37:29;;;;;;;22.05;13.38;;;;;;;23.07;19.55;98860.88;5073792;28;20034;-81
2021/11/12 01:39:59;;;;;;;31.17;15.77;;;;;;;23.29;19.35;98862.38;5078461;28;20040;-81
2021/11/12 01:42:47;;;;;;;29.08;16.13;;;;;;;23.37;19.38;98863.94;5067004;28;20474;-81
2021/11/12 01:45:13;;;;;;;28.95;16.45;;;;;;;23.26;19.29;98872.38;5070661;28;20028;-81
2021/11/12 01:50:26;;;;;;;28.02;14.48;;;;;;;23.51;19.23;98869.44;5068845;28;20054;-81
2021/11/12 01:53:01;;;;;;;29.45;15.25;;;;;;;23.22;19.57;98874.41;5067260;28;20033;-81
2021/11/12 01:55:40;;;;;;;32.53;15.68;;;;;;;23.28;19.82;98877.56;5070187;28;20448;-81
2021/11/12 01:58:27;;;;;;;34.03;17.38;;;;;;;23.44;19.99;98868.69;5065529;28;20029;-80
2021/11/12 02:00:53;;;;;;;32.10;16.10;;;;;;;23.59;19.98;98876.59;5065119;28;20060;-81
2021/11/12 02:03:19;;;;;;;32.45;15.55;;;;;;;23.89;19.74;98871.16;5061559;28;20039;-81
2021/11/12 02:05:46;;;;;;;32.22;16.90;;;;;;;23.91;19.71;98870.72;5073704;28;20029;-81
2021/11/12 02:08:12;;;;;;;27.92;14.48;;;;;;;23.91;19.77;98879.94;5068784;28;20490;-81
2021/11/12 02:10:38;;;;;;;34.00;17.45;;;;;;;24.09;19.49;98870.59;5071914;28;20025;-81
2021/11/12 02:13:11;;;;;;;29.00;15.00;;;;;;;24.24;19.39;98870.06;5073765;28;20477;-81
2021/11/12 02:15:39;;;;;;;36.28;18.20;;;;;;;24.45;19.08;98869.03;5072881;28;20021;-81
2021/11/12 02:18:16;;;;;;;29.90;15.57;;;;;;;24.38;18.75;98869.09;5060668;28;20085;-81
2021/11/12 02:20:55;;;;;;;32.35;17.33;;;;;;;24.34;18.45;98865.53;5082917;28;20043;-82
2021/11/12 02:23:24;;;;;;;26.70;13.80;;;;;;;24.50;18.47;98863.75;5054057;28;20390;-81
2021/11/12 02:25:52;;;;;;;33.22;16.35;;;;;;;24.21;18.47;98861.66;5064617;28;20429;-80
2021/11/12 02:28:18;;;;;;;34.80;17.95;;;;;;;23.95;18.93;98858.25;5069969;28;20033;-81
2021/11/12 02:30:49;;;;;;;26.13;14.18;;;;;;;23.83;19.19;98857.97;5067067;28;20120;-81
2021/11/12 02:33:19;;;;;;;29.88;15.05;;;;;;;23.85;19.33;98858.38;5067882;28;20107;-81
2021/11/12 02:36:07;;;;;;;32.05;17.08;;;;;;;23.95;19.04;98851.84;5066024;28;20028;-81
2021/11/12 02:38:39;;;;;;;29.10;14.63;;;;;;;24.25;19.13;98851.22;5071191;28;20100;-81
2021/11/12 02:41:07;;;;;;;29.25;14.77;;;;;;;24.32;19.13;98842.72;5065534;28;20055;-81
2021/11/12 02:43:35;;;;;;;30.02;16.02;;;;;;;24.39;19.33;98843.41;5074339;28;20028;-81
2021/11/12 02:46:03;;;;;;;28.55;16.15;;;;;;;24.41;19.21;98852.22;5064040;28;20106;-81
2021/11/12 02:48:36;;;;;;;34.38;19.52;;;;;;;24.34;18.84;98846.66;5065679;28;20112;-81
2021/11/12 02:51:09;;;;;;;30.77;17.40;;;;;;;23.73;19.62;98856.06;5064198;28;20521;-81
2021/11/12 02:53:36;;;;;;;27.00;14.27;;;;;;;23.59;19.57;98851.38;5049068;28;20516;-81
2021/11/12 02:56:07;;;;;;;29.13;15.18;;;;;;;23.65;19.22;98846.09;5067095;28;20036;-81
2021/11/12 02:58:34;;;;;;;;;;;;;;;23.64;19.83;98844.53;5067355;28;20040;-81
2021/11/12 03:01:00;;;;;;;27.98;14.25;;;;;;;23.89;19.69;98847.91;5064466;28;20397;-81
2021/11/12 03:03:28;;;;;;;27.98;15.77;;;;;;;23.78;19.05;98842.38;5061491;28;20029;-81
2021/11/12 03:05:54;;;;;;;30.13;16.15;;;;;;;23.36;19.82;98843.50;5067311;28;20391;-81
2021/11/12 03:08:20;;;;;;;31.55;16.00;;;;;;;23.14;19.74;98847.63;5074664;28;20027;-81
2021/11/12 03:10:48;;;;;;;28.88;15.65;;;;;;;23.14;20.06;98841.22;5071290;28;20071;-81
2021/11/12 03:13:14;;;;;;;25.00;13.20;;;;;;;23.15;19.96;98838.00;5066210;28;20031;-81
2021/11/12 03:15:40;;;;;;;27.25;14.57;;;;;;;23.41;20.00;98839.47;5073543;28;20032;-81
2021/11/12 03:18:07;;;;;;;26.52;14.07;;;;;;;23.63;19.86;98840.13;5068980;28;20032;-81
2021/11/12 03:20:34;;;;;;;25.77;14.95;;;;;;;23.76;19.89;98838.38;5064814;28;20057;-81
2021/11/12 03:23:12;;;;;;;28.73;15.32;;;;;;;23.21;20.22;98847.59;5067845;28;20053;-81
2021/11/12 03:25:43;;;;;;;30.25;16.40;;;;;;;22.90;20.75;98842.97;5060446;28;20032;-81
2021/11/12 03:50:13;;;;;;;;;;;;;;;24.65;19.39;98830.69;5067502;28;20045;-81
2021/11/12 04:01:33;;;;;;;24.35;13.52;;;;;;;24.37;19.69;98837.41;5059709;28;20048;-81
2021/11/12 04:17:30;;;;;;;27.88;13.68;;;;;;;24.97;19.47;98841.53;5070267;28;20401;-82
2021/11/12 04:20:23;;;;;;;24.95;13.63;;;;;;;25.10;19.22;98845.38;5054463;28;20201;-81
2021/11/12 05:02:56;;;;;;;23.10;12.85;;;;;;;25.75;19.00;98863.69;5066213;28;20043;-81
2021/11/12 05:25:56;;;;;;;23.70;13.85;;;;;;;24.42;20.39;98886.69;5064841;28;20056;-81
2021/11/12 05:44:58;;;;;;;24.00;11.95;;;;;;;25.16;19.86;98892.25;5057089;28;20584;-81
2021/11/12 05:50:15;;;;;;;19.63;10.98;;;;;;;25.61;19.60;98892.03;5051649;28;20055;-81
2021/11/12 05:55:26;;;;;;;23.30;13.43;;;;;;;24.23;21.09;98893.69;5050947;28;20062;-81
2021/11/12 05:57:52;;;;;;;29.00;13.40;;;;;;;24.48;20.99;98896.28;5055921;28;20033;-82
2021/11/12 06:00:19;;;;;;;22.50;13.25;;;;;;;24.95;20.41;98891.75;5038653;28;20036;-81
2021/11/12 06:02:46;;;;;;;23.65;12.30;;;;;;;25.40;20.03;98891.13;5065667;28;20024;-81
2021/11/12 06:05:16;;;;;;;23.65;12.43;;;;;;;25.68;19.45;98889.91;5064755;28;20066;-81
2021/11/12 06:07:42;;;;;;;24.65;14.77;;;;;;;25.82;19.41;98898.13;5070618;28;20024;-82
2021/11/12 06:10:08;;;;;;;23.63;13.20;;;;;;;25.99;19.48;98904.69;5052521;28;20024;-81
2021/11/12 06:12:35;;;;;;;24.27;12.70;;;;;;;26.15;19.45;98902.03;5068608;28;20513;-80
2021/11/12 06:15:01;;;;;;;21.80;12.70;;;;;;;25.80;19.58;98897.78;5067723;28;23400;-82
2021/11/12 06:17:27;;;;;;;21.75;12.32;;;;;;;25.64;19.75;98894.00;5066620;28;20036;-80
2021/11/12 06:19:53;;;;;;;21.85;12.25;;;;;;;25.78;19.68;98899.41;5065136;28;20029;-81
2021/11/12 06:22:19;;;;;;;24.33;13.57;;;;;;;25.30;20.21;98906.09;5062035;28;20055;-81
2021/11/12 06:24:46;;;;;;;20.42;11.40;;;;;;;24.60;21.25;98909.75;5065226;28;20024;-80
2021/11/12 06:27:12;;;;;;;21.90;12.27;;;;;;;24.70;21.09;98908.84;5064116;28;20503;-80
2021/11/12 06:29:39;;;;;;;26.50;13.82;;;;;;;25.22;20.55;98906.63;5069865;28;21380;-80
2021/11/12 06:32:05;;;;;;;22.85;13.20;;;;;;;25.54;20.22;98903.38;5069452;28;20409;-80
2021/11/12 06:34:32;;;;;;;21.17;12.38;;;;;;;25.68;19.98;98906.00;5074328;28;20123;-80
2021/11/12 06:36:58;;;;;;;24.77;12.98;;;;;;;25.79;19.83;98909.47;5066565;28;20074;-80
2021/11/12 06:39:24;;;;;;;24.45;12.98;;;;;;;25.90;19.77;98905.25;5065272;28;20090;-80
2021/11/12 06:52:20;;;;;;;;;;;;;;;24.96;21.60;98913.78;5063642;28;20406;-80
2021/11/12 06:54:46;;;;;;;23.13;12.85;;;;;;;25.61;20.49;98911.72;5069378;28;19920;-81
2021/11/12 06:57:14;;;;;;;23.50;13.40;;;;;;;25.77;20.54;98914.69;5068223;28;20048;-81
2021/11/12 06:59:40;;;;;;;20.20;11.38;;;;;;;25.50;20.77;98905.47;5066423;28;20508;-81
2021/11/12 07:02:08;;;;;;;21.48;12.35;;;;;;;25.71;20.80;98910.78;5073497;28;20062;-81
2021/11/12 07:04:35;;;;;;;23.00;13.10;;;;;;;26.05;20.41;98906.59;5065090;28;20029;-81
2021/11/12 07:07:01;;;;;;;21.23;12.63;;;;;;;26.39;20.12;98909.25;5072268;28;20203;-81
2021/11/12 07:09:27;;;;;;;27.08;14.68;;;;;;;26.64;19.62;98905.97;5080498;28;20064;-81
2021/11/12 07:11:53;;;;;;;29.52;17.23;;;;;;;26.72;19.48;98898.97;5070596;28;20028;-81
2021/11/12 07:14:19;;;;;;;26.58;14.73;;;;;;;26.82;19.70;98897.97;5066001;28;20032;-81
2021/11/12 07:16:45;;;;;;;27.90;15.43;;;;;;;26.93;19.35;98903.41;5049174;28;20394;-81
2021/11/12 07:19:11;;;;;;;21.17;13.15;;;;;;;26.83;19.25;98907.22;5069030;28;20405;-81
2021/11/12 07:21:39;;;;;;;26.80;14.82;;;;;;;25.51;20.80;98910.66;5068822;28;20133;-81
2021/11/12 07:24:05;;;;;;;25.15;14.07;;;;;;;25.06;21.71;98912.88;5068419;28;20059;-81
2021/11/12 07:26:32;;;;;;;22.73;13.35;;;;;;;25.42;21.60;98911.16;5072027;28;20028;-81
2021/11/12 07:28:59;;;;;;;20.65;12.60;;;;;;;25.66;21.04;98912.06;5070513;28;20033;-81
2021/11/12 07:31:26;;;;;;;23.75;13.52;;;;;;;25.85;20.98;98905.72;5074574;28;20037;-81
2021/11/12 07:33:54;;;;;;;23.23;14.38;;;;;;;26.27;20.69;98912.69;5069767;28;20440;-81
2021/11/12 07:36:22;;;;;;;25.55;15.60;;;;;;;26.60;20.23;98908.88;5069102;28;20390;-81
2021/11/12 07:38:56;;;;;;;22.05;12.95;;;;;;;26.61;20.25;98907.63;5063044;28;20037;-82
2021/11/12 07:41:39;;;;;;;69.72;40.33;;;;;;;26.12;20.66;98908.50;5063227;28;20040;-82
2021/11/12 07:44:22;;;;;;;39.63;24.98;;;;;;;25.68;21.18;98911.63;5062837;28;20033;-82
2021/11/12 07:49:23;;;;;;;24.55;14.90;;;;;;;25.52;21.52;98905.84;5062728;28;20048;-82
2021/11/12 07:51:50;;;;;;;24.13;14.60;;;;;;;25.75;21.30;98908.69;5068105;28;20039;-82
2021/11/12 07:54:16;;;;;;;22.23;13.32;;;;;;;25.85;21.22;98914.16;5071157;28;20433;-82
2021/11/12 07:56:43;;;;;;;25.08;13.55;;;;;;;25.91;21.38;98909.63;5082098;28;20021;-82
2021/11/12 07:59:09;;;;;;;22.95;14.70;;;;;;;26.37;21.17;98908.09;5069924;28;20037;-82
2021/11/12 08:01:35;;;;;;;26.27;15.32;;;;;;;26.56;20.40;98904.50;5069068;28;20028;-82
2021/11/12 08:04:03;;;;;;;25.92;16.30;;;;;;;26.25;21.07;98903.88;5042581;28;20040;-82
2021/11/12 08:06:30;;;;;;;27.70;15.85;;;;;;;25.63;21.90;98898.81;5067293;28;20021;-81
2021/11/12 08:11:33;;;;;;;22.58;13.85;;;;;;;25.17;22.47;98895.84;5071514;28;20064;-81
2021/11/12 08:16:43;;;;;;;19.80;12.77;;;;;;;25.31;21.78;98890.03;5068457;28;20065;-81
2021/11/12 08:19:16;;;;;;;17.25;11.82;;;;;;;25.72;21.60;98890.66;5069084;28;20555;-81
2021/11/12 08:24:21;;;;;;;20.85;12.52;;;;;;;26.63;20.75;98888.25;5071727;28;20052;-81
2021/11/12 08:29:42;;;;;;;26.23;13.80;;;;;;;26.26;20.78;98896.19;5067158;28;20045;-81
2021/11/12 08:37:14;;;;;;;22.40;12.65;;;;;;;25.60;21.94;98899.66;5069165;28;20532;-81
2021/11/12 08:42:18;;;;;;;17.17;10.90;;;;;;;26.42;21.13;98893.53;5064028;28;20115;-81
2021/11/12 08:44:53;;;;;;;21.85;12.02;;;;;;;26.95;21.07;98889.69;5066645;28;20535;-81
2021/11/12 08:47:29;;;;;;;19.27;11.18;;;;;;;27.36;20.06;98885.13;5069949;28;20077;-82
2021/11/12 08:49:57;;;;;;;20.92;14.02;;;;;;;27.53;19.83;98880.34;5067354;28;20040;-82
2021/11/12 08:52:24;;;;;;;20.92;13.50;;;;;;;27.52;19.90;98878.75;5066401;28;20036;-82
2021/11/12 08:54:50;;;;;;;21.50;12.70;;;;;;;27.45;19.90;98881.75;5068475;28;20446;-82
2021/11/12 08:57:17;;;;;;;17.75;10.70;;;;;;;27.32;19.76;98875.97;5069776;28;20104;-81
2021/11/12 08:59:50;;;;;;;17.52;10.88;;;;;;;27.25;20.26;98876.13;5070590;28;20032;-81
2021/11/12 09:02:19;;;;;;;16.60;10.50;;;;;;;27.57;20.14;98871.78;5070743;28;20068;-82
2021/11/12 09:04:47;;;;;;;18.50;10.55;;;;;;;27.74;19.75;98871.38;5059971;28;20397;-82
2021/11/12 09:07:15;;;;;;;18.80;11.75;;;;;;;27.89;19.61;98869.78;5070037;28;20044;-81
2021/11/12 09:09:42;;;;;;;17.85;11.13;;;;;;;27.86;19.90;98869.88;5067548;28;20040;-81
2021/11/12 09:12:11;;;;;;;17.95;10.65;;;;;;;28.02;19.47;98867.09;5066004;28;20048;-82
2021/11/12 09:14:46;;;;;;;17.38;10.13;;;;;;;28.12;19.70;98862.41;5079800;28;20043;-83
2021/11/12 09:17:13;;;;;;;15.27;9.80;;;;;;;28.18;19.29;98860.63;5065948;28;20040;-83
2021/11/12 09:19:50;;;;;;;15.07;9.38;;;;;;;28.22;19.30;98855.66;5063543;28;20039;-83
2021/11/12 09:22:20;;;;;;;13.50;8.88;;;;;;;28.25;18.98;98861.25;5067241;28;20047;-82
2021/11/12 09:24:48;;;;;;;13.38;8.82;;;;;;;27.92;19.66;98851.97;5064816;28;20753;-83
2021/11/12 09:27:15;;;;;;;12.75;8.48;;;;;;;27.97;19.55;98847.81;5066269;28;20040;-84
2021/11/12 09:29:42;;;;;;;18.13;9.88;;;;;;;27.93;19.87;98855.59;5081675;28;20054;-83
2021/11/12 09:32:09;;;;;;;12.93;8.43;;;;;;;28.01;19.50;98854.19;5071366;28;20044;-84
2021/11/12 09:34:37;;;;;;;11.32;7.75;;;;;;;28.14;19.46;98854.28;5066174;28;20037;-84
2021/11/12 09:37:06;;;;;;;12.90;8.77;;;;;;;28.22;19.29;98850.81;5068258;28;20050;-84
2021/11/12 09:39:33;;;;;;;18.00;10.88;;;;;;;25.90;20.90;98851.78;5079480;28;20096;-84
2021/11/12 09:42:05;;;;;;;17.98;11.15;;;;;;;24.52;22.38;98852.91;5065555;28;20060;-83
2021/11/12 09:44:32;;;;;;;17.90;10.20;;;;;;;24.69;22.51;98846.25;5067003;28;20620;-84
2021/11/12 09:46:58;;;;;;;18.92;11.18;;;;;;;24.52;22.93;98843.69;5048880;28;20028;-83
2021/11/12 09:49:25;;;;;;;15.27;9.25;;;;;;;24.78;22.47;98848.63;5061996;28;20463;-84
2021/11/12 09:51:51;;;;;;;15.63;9.80;;;;;;;25.01;22.13;98851.53;5063873;28;20029;-84
2021/11/12 09:54:18;;;;;;;14.82;9.18;;;;;;;24.86;22.39;98847.28;5064837;28;20056;-83
2021/11/12 09:56:44;;;;;;;15.18;10.20;;;;;;;24.51;22.35;98844.88;5065266;28;20040;-85
2021/11/12 09:59:11;;;;;;;13.55;8.93;;;;;;;24.83;22.22;98850.97;5048811;28;20445;-85
2021/11/12 10:01:40;;;;;;;12.50;8.35;;;;;;;25.16;21.96;98835.22;5062260;28;20032;-86
2021/11/12 10:04:11;;;;;;;14.57;9.40;;;;;;;24.88;21.85;98830.81;5066192;28;20306;-86
2021/11/12 10:06:45;;;;;;;15.48;9.93;;;;;;;25.36;21.76;98831.34;5065076;28;20033;-86
2021/11/12 10:09:20;;;;;;;12.95;8.75;;;;;;;25.63;21.16;98822.09;5069596;28;20097;-85
2021/11/12 10:11:52;;;;;;;19.30;12.13;;;;;;;24.76;22.80;98822.13;5065101;28;20034;-85
2021/11/12 10:14:44;;;;;;;18.00;12.02;;;;;;;24.17;22.88;98827.22;5070202;28;20068;-85
2021/11/12 10:17:11;;;;;;;15.93;10.63;;;;;;;24.31;22.91;98824.28;5067704;28;20512;-86
2021/11/12 10:19:53;;;;;;;17.17;9.52;;;;;;;24.45;23.00;98818.50;5054713;28;20112;-85
2021/11/12 10:22:27;;;;;;;17.05;10.55;;;;;;;24.32;22.86;98820.25;5066729;28;20475;-85
2021/11/12 10:24:55;;;;;;;17.00;10.45;;;;;;;24.63;23.13;98816.25;5069183;28;20041;-85
2021/11/12 10:27:29;;;;;;;18.10;10.18;;;;;;;25.19;22.64;98812.72;5069322;28;20048;-84
2021/11/12 10:29:59;;;;;;;18.17;11.32;;;;;;;25.77;21.67;98808.59;5065940;28;20028;-85
2021/11/12 10:32:28;;;;;;;17.65;11.25;;;;;;;26.36;20.66;98800.28;5047486;28;20052;-86
2021/11/12 10:35:01;;;;;;;17.95;11.07;;;;;;;26.70;21.00;98792.31;5060791;28;20116;-84
2021/11/12 10:37:31;;;;;;;18.00;11.63;;;;;;;26.73;20.31;98785.03;5062893;28;20390;-85
2021/11/12 10:40:12;;;;;;;16.60;10.95;;;;;;;26.64;20.70;98779.19;5061506;28;20033;-85
2021/11/12 10:42:43;;;;;;;;;;;;;;;26.39;20.99;98782.53;5067049;28;20040;-84
2021/11/12 10:45:14;;;;;;;21.42;11.73;;;;;;;26.38;20.98;98777.31;5066497;28;19931;-84
2021/11/12 10:47:56;;;;;;;20.25;12.45;;;;;;;25.93;21.18;98771.31;5067546;28;20024;-84
2021/11/12 10:50:27;;;;;;;17.48;11.73;;;;;;;24.38;22.54;98784.91;5063952;28;20381;-85
2021/11/12 10:53:05;;;;;;;19.88;12.27;;;;;;;23.35;24.09;98782.28;5068530;28;20490;-83
2021/11/12 10:55:31;;;;;;;19.05;10.82;;;;;;;23.53;23.91;98779.31;5069315;28;20056;-84
2021/11/12 10:58:08;;;;;;;14.43;10.38;;;;;;;23.43;23.87;98769.81;5068799;28;20514;-85
2021/11/12 11:00:37;;;;;;;17.92;11.30;;;;;;;22.20;25.88;98771.25;5068716;28;20055;-85
2021/11/12 11:03:12;;;;;;;21.70;14.55;;;;;;;21.38;26.98;98780.16;5054275;28;20025;-85
2021/11/12 11:05:58;;;;;;;18.10;10.27;;;;;;;23.88;24.32;98771.38;5068244;28;20498;-85
2021/11/12 11:08:27;;;;;;;17.42;9.75;;;;;;;25.37;22.35;98762.63;5065846;28;20037;-86
2021/11/12 11:11:04;;;;;;;16.30;10.35;;;;;;;26.25;20.86;98762.31;5067179;28;20079;-86
2021/11/12 11:13:33;;;;;;;21.40;12.52;;;;;;;26.31;20.39;98752.94;5059636;28;20115;-85
2021/11/12 11:16:02;;;;;;;13.43;8.95;;;;;;;26.30;20.84;98754.13;5052624;28;20099;-86
2021/11/12 11:18:43;;;;;;;17.45;10.57;;;;;;;26.41;20.43;98751.91;5068494;28;20533;-84
2021/11/12 11:21:14;;;;;;;17.40;10.35;;;;;;;26.38;20.91;98751.97;5067847;28;20067;-83
2021/11/12 11:24:02;;;;;;;16.63;11.65;;;;;;;25.57;21.59;98762.75;5063866;28;20053;-84
2021/11/12 11:26:29;;;;;;;17.42;11.15;;;;;;;25.63;21.56;98755.38;5058002;28;20046;-85
2021/11/12 11:28:59;;;;;;;14.10;9.75;;;;;;;25.85;21.61;98745.38;5063426;28;20032;-84
2021/11/12 11:31:27;;;;;;;19.02;12.05;;;;;;;25.97;20.99;98738.31;5065902;28;20043;-85
2021/11/12 11:33:54;;;;;;;17.85;10.63;;;;;;;25.41;21.50;98743.69;5067195;28;20037;-85
2021/11/12 11:36:23;;;;;;;17.27;11.07;;;;;;;25.80;21.48;98742.25;5070616;28;20359;-84
2021/11/12 11:38:51;;;;;;;15.00;9.32;;;;;;;25.91;21.11;98740.81;5067361;28;20614;-84
2021/11/12 11:41:23;;;;;;;20.52;13.20;;;;;;;25.89;21.16;98734.81;5069492;28;20034;-85
2021/11/12 11:43:49;;;;;;;17.40;10.35;;;;;;;25.26;21.44;98747.97;5071816;28;20044;-84
2021/11/12 11:46:25;;;;;;;17.90;11.60;;;;;;;24.87;22.43;98744.97;5072015;28;20029;-84
2021/11/12 11:48:59;;;;;;;18.00;11.82;;;;;;;25.08;21.73;98735.41;5056531;28;20025;-85
2021/11/12 11:51:37;;;;;;;30.40;18.00;;;;;;;25.05;21.89;98731.44;5074503;28;20028;-85
2021/11/12 11:54:05;;;;;;;22.65;15.68;;;;;;;24.09;22.84;98733.91;5067292;28;20059;-84
2021/11/12 11:56:35;;;;;;;19.17;11.43;;;;;;;24.35;23.15;98732.41;5058549;28;20035;-85
2021/11/12 11:59:15;;;;;;;21.70;13.75;;;;;;;24.49;22.99;98729.41;5071271;28;20036;-85
2021/11/12 12:01:56;;;;;;;16.35;11.30;;;;;;;25.02;22.33;98721.03;5075767;28;20444;-84
2021/11/12 12:04:23;;;;;;;21.45;14.10;;;;;;;25.57;21.57;98722.56;5056808;28;20036;-84
2021/11/12 12:07:01;;;;;;;19.10;11.98;;;;;;;24.64;22.39;98731.59;5073143;28;20035;-82
2021/11/12 12:09:52;;;;;;;19.95;11.38;;;;;;;25.03;22.01;98719.03;5066472;28;20055;-83
2021/11/12 12:12:30;;;;;;;15.55;10.77;;;;;;;25.37;22.17;98722.47;5066956;28;20086;-82
2021/11/12 12:15:04;;;;;;;19.08;11.95;;;;;;;25.58;21.42;98710.88;5069939;28;20131;-82
2021/11/12 12:17:34;;;;;;;20.85;12.90;;;;;;;25.47;21.01;98715.91;5072445;28;20051;-82
2021/11/12 13:25:59;;;;;;;24.40;13.95;;;;;;;25.41;21.59;98669.81;5067451;28;20079;-82
2021/11/12 13:28:26;;;;;;;20.27;12.90;;;;;;;25.70;21.28;98678.53;5068845;28;20045;-83
2021/11/12 13:31:12;;;;;;;17.05;11.00;;;;;;;25.96;20.73;98669.16;5070414;28;20063;-83
2021/11/12 13:33:49;;;;;;;23.08;13.20;;;;;;;25.39;21.49;98663.81;5068370;28;20450;-83
2021/11/12 13:36:32;;;;;;;23.73;14.43;;;;;;;25.81;20.99;98674.28;5048425;28;20036;-84
2021/11/12 13:39:02;;;;;;;23.60;14.13;;;;;;;25.00;21.87;98667.28;5067046;28;20086;-83
2021/11/12 13:41:44;;;;;;;19.90;12.45;;;;;;;25.02;21.81;98676.06;5068794;28;20090;-82
2021/11/12 13:44:20;;;;;;;22.02;13.15;;;;;;;24.99;22.09;98678.97;5066258;28;20025;-82
2021/11/12 13:46:54;;;;;;;24.88;13.90;;;;;;;25.17;21.71;98680.25;5061067;28;20044;-82
2021/11/12 13:49:26;;;;;;;23.70;14.75;;;;;;;25.32;21.54;98670.34;5066830;28;20211;-84
2021/11/12 13:51:52;;;;;;;23.75;14.07;;;;;;;25.47;21.33;98659.69;5064128;28;20028;-83
2021/11/12 13:54:19;;;;;;;22.38;14.20;;;;;;;25.52;21.34;98658.38;5066239;28;20031;-83
2021/11/12 13:56:48;;;;;;;20.77;13.45;;;;;;;25.81;20.94;98663.03;5071294;28;20021;-84
2021/11/12 13:59:15;;;;;;;20.55;13.38;;;;;;;25.91;20.67;98659.22;5069103;28;20048;-83
2021/11/12 14:01:42;;;;;;;22.48;13.48;;;;;;;25.57;21.18;98657.88;5068731;28;20078;-84
2021/11/12 14:04:26;;;;;;;22.27;13.32;;;;;;;25.63;20.85;98662.59;5069244;28;20039;-84
2021/11/12 14:06:55;;;;;;;26.90;15.95;;;;;;;24.18;22.51;98666.88;5063925;28;20051;-85
2021/11/12 14:09:24;;;;;;;36.13;19.10;;;;;;;22.11;25.23;98664.63;5067002;28;20032;-85
2021/11/12 14:12:08;;;;;;;29.40;17.23;;;;;;;21.95;25.62;98661.50;5056030;28;20047;-84
2021/11/12 14:14:37;;;;;;;36.85;22.77;;;;;;;22.28;25.22;98662.94;5069214;28;20029;-85
2021/11/12 14:17:46;;;;;;;34.75;22.17;;;;;;;23.68;23.48;98663.84;5061802;28;20028;-83
2021/11/12 14:20:23;;;;;;;26.42;16.10;;;;;;;22.06;25.40;98658.63;5050699;28;20048;-83
2021/11/12 14:23:06;;;;;;;27.98;18.38;;;;;;;22.91;24.30;98654.16;5061823;28;20796;-83
2021/11/12 14:26:01;;;;;;;31.30;18.00;;;;;;;22.51;24.90;98650.00;5064236;28;20497;-82
2021/11/12 14:28:44;;;;;;;35.15;18.55;;;;;;;21.92;25.95;98653.91;5066620;28;20525;-83
2021/11/12 14:33:44;;;;;;;26.65;15.10;;;;;;;23.04;24.47;98649.63;5067465;28;20032;-83
2021/11/12 14:36:45;;;;;;;30.10;17.05;;;;;;;23.51;23.51;98641.59;5068455;28;20025;-83
2021/11/12 14:42:24;;;;;;;33.67;17.67;;;;;;;22.32;25.00;98641.34;5071537;28;20476;-83
2021/11/12 14:47:57;;;;;;;30.13;16.17;;;;;;;22.09;25.26;98636.28;5069547;28;20036;-83
2021/11/12 14:53:22;;;;;;;29.45;17.13;;;;;;;22.52;24.78;98634.03;5065933;28;20048;-83
2021/11/12 14:55:55;;;;;;;32.65;16.55;;;;;;;20.76;26.78;98638.13;5062090;28;20047;-83
2021/11/12 14:58:23;;;;;;;23.38;14.48;;;;;;;22.16;25.60;98636.22;5064212;28;20040;-83
2021/11/12 15:00:50;;;;;;;28.73;16.00;;;;;;;21.88;25.80;98644.75;5063041;28;20052;-84
2021/11/12 15:03:16;;;;;;;28.75;17.05;;;;;;;22.40;24.87;98651.28;5064299;28;20043;-84
2021/11/12 15:05:42;;;;;;;23.20;13.65;;;;;;;21.21;26.27;98637.31;5067655;28;20024;-84
2021/11/12 15:08:16;;;;;;;28.65;16.10;;;;;;;21.19;26.52;98645.28;5066802;28;20033;-84
2021/11/12 15:10:42;;;;;;;24.98;14.68;;;;;;;20.80;27.13;98638.91;5049073;28;20490;-83
2021/11/12 15:13:08;;;;;;;29.98;16.70;;;;;;;21.09;26.89;98628.56;5058097;28;20035;-82
2021/11/12 15:15:34;;;;;;;26.92;15.23;;;;;;;21.39;26.37;98628.09;5058529;28;20033;-84
2021/11/12 15:18:04;;;;;;;26.63;16.05;;;;;;;21.86;25.48;98622.00;5061145;28;20115;-83
2021/11/12 15:20:30;;;;;;;27.67;14.20;;;;;;;22.36;25.03;98623.31;5066260;28;20032;-84
2021/11/12 15:23:19;;;;;;;35.33;18.65;;;;;;;20.80;26.70;98621.38;5064700;28;20513;-85
2021/11/12 15:28:29;;;;;;;25.27;14.55;;;;;;;21.16;27.01;98625.78;5058435;28;20048;-89
2021/11/12 15:31:09;;;;;;;29.65;16.52;;;;;;;21.06;27.21;98635.75;5059183;28;20107;-88
2021/11/12 15:33:36;;;;;;;34.50;17.33;;;;;;;21.04;26.89;98640.94;5067192;28;20028;-86
2021/11/12 15:36:06;;;;;;;28.77;16.23;;;;;;;20.96;27.09;98642.09;5064825;28;20037;-85
2021/11/12 15:38:47;;;;;;;33.73;17.07;;;;;;;19.83;28.78;98643.88;5061508;28;20043;-84
2021/11/12 15:44:11;;;;;;;35.67;18.08;;;;;;;21.26;26.91;98634.13;5063004;28;20044;-87
2021/11/12 15:46:43;;;;;;;40.97;22.05;;;;;;;20.89;27.22;98630.94;5062207;28;20059;-88
2021/11/12 15:49:09;;;;;;;35.05;18.23;;;;;;;21.22;26.78;98621.34;5061864;28;20058;-85
2021/11/12 15:51:42;;;;;;;38.70;20.60;;;;;;;21.74;26.11;98626.00;5064198;28;20033;-86
2021/11/12 16:00:15;;;;;;;35.17;18.20;;;;;;;22.11;25.72;98631.06;5068297;28;20044;-86
2021/11/12 16:02:47;;;;;;;33.47;17.42;;;;;;;21.62;26.12;98632.03;5054901;28;20171;-84
2021/11/12 16:08:21;;;;;;;37.60;19.75;;;;;;;22.08;25.58;98636.69;5053696;28;20094;-86
2021/11/12 16:11:12;;;;;;;40.35;22.58;;;;;;;20.86;27.20;98634.53;5058990;28;20063;-85